Time;durP1;ratioP1;P1;durP2;ratioP2;P2;SDS_P1;SDS_P2;PMS_P1;PMS_P2;Temp;Humidity;BMP_temperature;BMP_pressure;BME280_temperature;BME280_humidity;BME280_pressure;Samples;Min_cycle;Max_cycle;Signal;HPM_P1;HPM_P2
2022/02/10 00:16:02;;;;;;;9.48;7.38;;;12.00;79.00;;;;;;4988360;28;20041;-83
2022/02/10 00:21:00;;;;;;;11.43;8.45;;;12.00;79.10;;;;;;4982794;28;20032;-82
2022/02/10 00:36:35;;;;;;;9.23;7.70;;;12.00;79.10;;;;;;5004705;28;20074;-83
2022/02/10 00:41:44;;;;;;;9.65;7.50;;;12.00;79.10;;;;;;4983270;28;20041;-82
2022/02/10 00:44:10;;;;;;;10.63;8.55;;;12.00;79.10;;;;;;4975438;28;20418;-83
2022/02/10 00:46:36;;;;;;;10.55;7.93;;;12.00;79.10;;;;;;5002760;28;20033;-83
2022/02/10 00:49:01;;;;;;;11.02;8.38;;;12.00;79.10;;;;;;4969843;28;20025;-82
2022/02/10 00:51:27;;;;;;;10.13;8.35;;;12.00;79.10;;;;;;4981770;28;20036;-82
2022/02/10 00:53:53;;;;;;;11.48;9.13;;;12.00;79.10;;;;;;4972688;28;20230;-82
2022/02/10 00:56:20;;;;;;;10.93;8.70;;;12.00;79.10;;;;;;4979835;28;20041;-82
2022/02/10 00:58:56;;;;;;;11.13;9.20;;;11.90;79.10;;;;;;4969006;28;20036;-83
2022/02/10 01:07:13;;;;;;;10.15;8.43;;;11.90;79.00;;;;;;4971857;28;20080;-82
2022/02/10 01:12:42;;;;;;;9.55;7.95;;;12.00;79.10;;;;;;5006465;28;20048;-83
2022/02/10 01:31:26;;;;;;;10.25;8.23;;;11.90;79.10;;;;;;5001350;28;20033;-84
2022/02/10 01:33:51;;;;;;;11.20;8.82;;;11.90;79.10;;;;;;4999009;28;20030;-83
2022/02/10 01:36:17;;;;;;;10.60;8.32;;;11.90;79.10;;;;;;4979668;28;20029;-84
2022/02/10 01:38:43;;;;;;;10.27;8.52;;;11.90;79.10;;;;;;5009734;28;20042;-84
2022/02/10 01:58:01;;;;;;;10.05;7.63;;;11.90;79.70;;;;;;5005549;28;20049;-84
2022/02/10 02:05:59;;;;;;;9.50;6.97;;;11.80;79.00;;;;;;5023115;28;20041;-83
2022/02/10 02:08:28;;;;;;;8.73;6.97;;;11.80;79.10;;;;;;5024470;28;20064;-82
2022/02/10 02:10:54;;;;;;;9.82;7.20;;;11.80;79.10;;;;;;5019526;28;20025;-83
2022/02/10 02:13:21;;;;;;;9.85;7.47;;;11.90;79.20;;;;;;5021713;28;20572;-85
2022/02/10 02:15:47;;;;;;;8.82;7.22;;;11.90;79.20;;;;;;5024089;28;20056;-83
2022/02/10 02:18:13;;;;;;;10.57;8.05;;;11.80;79.10;;;;;;5021064;28;20025;-83
2022/02/10 02:20:39;;;;;;;9.43;7.35;;;11.80;79.10;;;;;;5006218;28;20041;-83
2022/02/10 02:23:05;;;;;;;9.68;7.22;;;11.80;79.10;;;;;;5001006;28;20095;-83
2022/02/10 02:25:31;;;;;;;9.20;7.32;;;11.80;79.10;;;;;;5010900;28;20072;-83
2022/02/10 02:27:58;;;;;;;9.88;7.38;;;11.90;79.10;;;;;;4999613;28;20029;-83
2022/02/10 02:30:38;;;;;;;9.85;7.13;;;11.90;79.10;;;;;;5021270;28;20068;-82
2022/02/10 02:34:05;;;;;;;9.82;7.95;;;11.90;79.20;;;;;;5021855;28;20060;-82
2022/02/10 03:08:46;;;;;;;9.05;7.10;;;11.70;79.10;;;;;;5021012;28;20109;-83
2022/02/10 03:11:13;;;;;;;8.40;6.78;;;11.80;79.20;;;;;;5014657;28;20030;-83
2022/02/10 03:13:47;;;;;;;8.73;6.88;;;11.80;79.20;;;;;;5019087;28;20489;-82
2022/02/10 03:19:05;;;;;;;8.30;6.55;;;11.80;79.20;;;;;;5036144;28;20111;-85
2022/02/10 04:15:21;;;;;;;9.75;6.60;;;11.70;79.20;;;;;;5018058;28;20035;-86
2022/02/10 04:20:44;;;;;;;7.47;6.38;;;11.70;79.20;;;;;;5002754;28;20047;-86
2022/02/10 04:23:33;;;;;;;7.55;5.70;;;11.70;79.20;;;;;;5022243;28;20033;-83
2022/02/10 04:32:05;;;;;;;7.95;6.07;;;11.70;79.20;;;;;;5019151;28;20136;-82
2022/02/10 04:56:25;;;;;;;7.43;5.45;;;11.60;79.20;;;;;;5000641;28;20044;-82
2022/02/10 05:20:06;;;;;;;7.63;6.15;;;11.60;79.20;;;;;;4998777;28;20033;-82
2022/02/10 05:33:18;;;;;;;7.55;6.20;;;11.60;79.20;;;;;;5034167;28;20111;-85
2022/02/10 05:35:48;;;;;;;8.10;6.53;;;11.60;79.20;;;;;;5015038;28;20064;-84
2022/02/10 05:38:38;;;;;;;8.75;7.38;;;11.60;79.20;;;;;;5000752;28;20041;-82
2022/02/10 05:54:35;;;;;;;8.27;6.50;;;11.60;79.20;;;;;;5050963;28;20037;-82
2022/02/10 05:57:23;;;;;;;8.17;6.73;;;11.60;79.20;;;;;;5001781;28;20480;-81
2022/02/10 06:00:39;;;;;;;8.40;6.60;;;11.60;79.20;;;;;;5015497;28;20501;-82
2022/02/10 06:49:07;;;;;;;8.82;7.35;;;11.50;79.30;;;;;;5058780;28;20350;-83
2022/02/10 06:57:23;;;;;;;9.98;7.90;;;11.50;79.30;;;;;;5060222;28;20099;-82
2022/02/10 07:08:11;;;;;;;10.40;7.88;;;11.50;79.30;;;;;;5019280;28;20095;-85
2022/02/10 07:49:00;;;;;;;11.52;9.07;;;11.40;79.30;;;;;;5002425;28;20103;-83
2022/02/10 08:56:49;;;;;;;4.32;2.80;;;11.30;79.40;;;;;;5020528;28;20095;-86
2022/02/10 09:04:32;;;;;;;3.90;2.75;;;11.30;79.40;;;;;;5037106;28;20314;-83
2022/02/10 09:15:28;;;;;;;4.53;3.10;;;11.30;79.50;;;;;;5000235;28;20071;-84
2022/02/10 10:03:28;;;;;;;2.63;1.83;;;11.30;79.60;;;;;;5039990;28;20112;-82
2022/02/10 10:06:20;;;;;;;3.15;1.70;;;11.30;79.60;;;;;;5040890;28;20036;-85
2022/02/10 10:11:52;;;;;;;3.30;1.70;;;11.30;79.60;;;;;;5057122;28;20076;-82
2022/02/10 10:14:27;;;;;;;2.95;2.08;;;11.30;79.60;;;;;;5036865;28;20040;-82
2022/02/10 10:26:02;;;;;;;2.97;1.63;;;11.20;79.70;;;;;;5018813;28;20080;-86
2022/02/10 10:50:30;;;;;;;2.05;1.58;;;11.30;79.70;;;;;;5049385;28;20052;-82
2022/02/10 10:58:17;;;;;;;2.65;1.50;;;11.30;79.70;;;;;;5030568;28;20033;-84
2022/02/10 11:03:32;;;;;;;2.22;1.60;;;11.30;79.70;;;;;;5031863;28;20041;-82
2022/02/10 11:07:36;;;;;;;1.85;1.55;;;11.30;79.70;;;;;;5015524;28;20178;-82
2022/02/10 11:38:19;;;;;;;1.77;1.40;;;11.40;79.80;;;;;;5036043;28;20036;-82
2022/02/10 11:41:48;;;;;;;2.42;1.45;;;11.50;79.80;;;;;;5036023;28;20025;-82
2022/02/10 12:38:25;;;;;;;;;;;11.60;79.70;;;;;;4996575;28;20034;-87
2022/02/10 13:29:01;;;;;;;4.05;2.70;;;11.90;79.60;;;;;;4976094;28;20050;-85
2022/02/10 14:25:56;;;;;;;3.38;2.22;;;12.00;79.40;;;;;;4986774;28;20062;-87
2022/02/10 14:28:22;;;;;;;3.67;2.00;;;12.00;79.40;;;;;;4987104;28;20467;-85
2022/02/10 14:30:52;;;;;;;2.65;1.92;;;12.00;79.30;;;;;;4979831;28;20026;-86
2022/02/10 14:33:26;;;;;;;3.00;2.00;;;12.00;79.40;;;;;;4979661;28;20034;-88
2022/02/10 14:39:23;;;;;;;2.80;1.73;;;12.00;79.30;;;;;;4984597;28;20526;-85
2022/02/10 15:13:02;;;;;;;2.80;1.70;;;12.00;79.30;;;;;;5000502;28;20030;-85
2022/02/10 16:11:02;;;;;;;2.88;1.65;;;12.00;79.10;;;;;;5002473;28;20557;-86
2022/02/10 16:18:59;;;;;;;2.80;1.33;;;11.90;79.10;;;;;;5007298;28;20045;-85
2022/02/10 16:24:14;;;;;;;1.35;1.23;;;11.90;79.70;;;;;;5021123;28;20087;-85
2022/02/10 16:26:54;;;;;;;2.17;1.30;;;11.90;79.00;;;;;;5002663;28;20073;-83
2022/02/10 16:29:22;;;;;;;2.03;1.38;;;11.90;79.00;;;;;;5026263;28;20037;-83
2022/02/10 16:31:48;;;;;;;2.60;1.67;;;11.90;79.00;;;;;;5035765;28;20111;-82
2022/02/10 16:34:14;;;;;;;2.67;1.40;;;11.90;79.00;;;;;;5050642;28;20180;-83
2022/02/10 16:36:40;;;;;;;3.42;1.63;;;11.90;79.00;;;;;;5026345;28;20526;-83
2022/02/10 16:39:06;;;;;;;1.40;1.20;;;11.90;79.00;;;;;;4998523;28;20534;-83
2022/02/10 16:41:32;;;;;;;2.25;1.42;;;11.90;79.00;;;;;;4998321;28;20022;-84
2022/02/10 16:43:58;;;;;;;3.05;1.63;;;11.90;79.00;;;;;;5019667;28;20381;-83
2022/02/10 16:46:25;;;;;;;2.63;1.60;;;11.90;78.90;;;;;;5035227;28;20100;-81
2022/02/10 16:48:51;;;;;;;2.38;1.45;;;11.80;78.90;;;;;;5027575;28;20120;-81
2022/02/10 16:51:18;;;;;;;2.65;1.60;;;11.90;78.90;;;;;;5014998;28;20113;-83
2022/02/10 16:53:50;;;;;;;3.28;1.65;;;11.80;78.80;;;;;;5000551;28;20049;-82
2022/02/10 16:56:21;;;;;;;3.10;1.60;;;11.80;78.80;;;;;;5000237;28;20034;-82
2022/02/10 16:59:08;;;;;;;2.72;1.45;;;11.80;78.80;;;;;;5032168;28;20033;-83
2022/02/10 17:02:01;;;;;;;2.80;1.60;;;11.80;78.80;;;;;;4991581;28;20033;-82
2022/02/10 17:05:02;;;;;;;2.85;1.40;;;11.80;78.80;;;;;;5031859;28;20470;-82
2022/02/10 17:26:01;;;;;;;1.52;1.30;;;11.60;78.80;;;;;;5029752;28;20553;-83
2022/02/10 17:28:27;;;;;;;1.88;1.30;;;11.60;78.80;;;;;;5013172;28;20033;-80
2022/02/10 17:34:04;;;;;;;1.90;1.38;;;11.60;78.80;;;;;;5019891;28;20120;-85
2022/02/10 17:36:31;;;;;;;1.52;1.27;;;11.60;78.80;;;;;;5034886;28;20119;-83
2022/02/10 17:42:04;;;;;;;2.53;1.30;;;11.50;78.80;;;;;;5010100;28;20474;-85
2022/02/10 17:51:26;;;;;;;2.85;1.70;;;11.50;78.80;;;;;;5023019;28;20086;-83
2022/02/10 17:52:31;;;;;;;1.55;1.15;;;11.40;78.70;;;;;;5022924;28;20034;-81
2022/02/10 17:54:57;;;;;;;2.80;1.40;;;11.50;78.80;;;;;;5013336;28;20025;-82
2022/02/10 17:57:25;;;;;;;1.40;1.20;;;11.40;78.70;;;;;;5031101;28;20037;-82
2022/02/10 17:59:51;;;;;;;1.25;1.10;;;11.40;78.80;;;;;;5019281;28;20546;-80
2022/02/10 18:02:16;;;;;;;1.83;1.20;;;11.40;78.80;;;;;;5005937;28;20060;-80
2022/02/10 18:04:42;;;;;;;2.28;1.30;;;11.40;78.80;;;;;;5000384;28;20033;-80
2022/02/10 18:07:10;;;;;;;1.45;1.30;;;11.40;78.80;;;;;;5020763;28;20037;-80
2022/02/10 18:10:10;;;;;;;2.28;1.30;;;11.30;78.70;;;;;;5022704;28;20532;-84
2022/02/10 18:15:24;;;;;;;2.25;1.40;;;11.30;78.70;;;;;;5048463;28;20052;-81
2022/02/10 18:17:58;;;;;;;1.55;1.30;;;11.30;78.70;;;;;;5014469;28;20037;-79
2022/02/10 18:20:31;;;;;;;2.15;1.40;;;11.30;78.70;;;;;;5026600;28;20036;-85
2022/02/10 18:23:10;;;;;;;2.13;1.40;;;11.30;78.70;;;;;;5004918;28;20040;-80
2022/02/10 18:25:50;;;;;;;2.47;1.40;;;11.30;78.70;;;;;;5022964;28;20060;-80
2022/02/10 18:28:25;;;;;;;2.20;1.23;;;11.30;78.70;;;;;;5003175;28;20029;-83
2022/02/10 19:09:32;;;;;;;3.15;1.65;;;11.00;78.80;;;;;;5019662;28;20084;-80
2022/02/10 19:11:23;;;;;;;2.03;1.40;;;10.90;78.80;;;;;;5044166;28;20080;-82
2022/02/10 19:13:53;;;;;;;1.30;1.20;;;10.90;78.80;;;;;;5020412;28;20554;-80
2022/02/10 19:16:18;;;;;;;1.75;1.27;;;10.90;78.80;;;;;;5008257;28;20040;-82
2022/02/10 19:18:44;;;;;;;1.70;1.20;;;10.90;78.80;;;;;;5003914;28;20470;-80
2022/02/10 19:21:10;;;;;;;2.05;1.30;;;10.90;78.80;;;;;;5011596;28;20101;-81
2022/02/10 19:23:36;;;;;;;2.40;1.30;;;10.90;78.80;;;;;;5000103;28;20470;-82
2022/02/10 19:26:02;;;;;;;2.28;1.33;;;10.90;78.80;;;;;;5000022;28;20156;-81
2022/02/10 19:28:28;;;;;;;1.73;1.27;;;10.80;78.80;;;;;;5014257;28;20093;-80
2022/02/10 19:30:55;;;;;;;3.05;1.20;;;10.80;78.80;;;;;;5025048;28;20033;-80
2022/02/10 19:33:20;;;;;;;1.70;1.30;;;10.80;78.80;;;;;;5035784;28;20029;-83
2022/02/10 19:35:49;;;;;;;2.40;1.42;;;10.80;78.70;;;;;;5015235;28;20502;-80
2022/02/10 19:38:20;;;;;;;2.60;1.50;;;10.80;78.70;;;;;;5005433;28;20032;-79
2022/02/10 19:40:51;;;;;;;1.58;1.10;;;10.80;78.80;;;;;;5032661;28;20478;-80
2022/02/10 19:43:19;;;;;;;1.55;1.25;;;10.80;78.80;;;;;;5015461;28;20028;-83
2022/02/10 19:45:45;;;;;;;2.53;1.60;;;10.70;78.70;;;;;;5015577;28;20028;-84
2022/02/10 19:48:10;;;;;;;3.28;1.60;;;10.80;78.70;;;;;;5000937;28;20030;-90
2022/02/10 19:50:36;;;;;;;2.22;1.45;;;10.70;78.70;;;;;;5002280;28;20029;-80
2022/02/10 19:53:06;;;;;;;3.25;1.33;;;10.70;78.80;;;;;;4999771;28;20049;-80
2022/02/10 19:55:35;;;;;;;2.90;1.60;;;10.70;78.70;;;;;;5015675;28;20041;-80
2022/02/10 19:58:05;;;;;;;3.65;1.27;;;10.70;78.70;;;;;;5000247;28;20187;-79
2022/02/10 20:00:37;;;;;;;1.80;1.40;;;10.70;78.70;;;;;;5033280;28;20033;-79
2022/02/10 20:03:11;;;;;;;2.28;1.40;;;10.70;78.70;;;;;;5018916;28;20029;-80
2022/02/10 20:05:37;;;;;;;2.60;1.50;;;10.70;78.70;;;;;;5016591;28;20482;-81
2022/02/10 20:08:03;;;;;;;3.35;1.60;;;10.60;78.60;;;;;;4984476;28;20035;-80
2022/02/10 20:10:28;;;;;;;3.55;1.83;;;10.60;78.60;;;;;;5034379;28;20128;-81
2022/02/10 20:12:54;;;;;;;1.50;1.30;;;10.60;78.70;;;;;;5015237;28;20639;-81
2022/02/10 20:15:22;;;;;;;2.28;1.45;;;10.60;78.70;;;;;;5022992;28;20037;-81
2022/02/10 20:17:51;;;;;;;1.95;1.50;;;10.60;78.60;;;;;;5002928;28;20119;-83
2022/02/10 20:20:17;;;;;;;2.50;1.58;;;10.60;78.60;;;;;;5015119;28;20025;-80
2022/02/10 20:22:42;;;;;;;2.63;1.58;;;10.50;78.50;;;;;;4991857;28;20462;-83
2022/02/10 20:25:09;;;;;;;3.20;1.50;;;10.50;78.50;;;;;;4998566;28;20033;-83
2022/02/10 20:27:36;;;;;;;3.20;1.80;;;10.50;78.50;;;;;;5023940;28;20065;-85
2022/02/10 20:30:07;;;;;;;3.03;1.85;;;10.50;78.50;;;;;;5024073;28;20044;-81
2022/02/10 20:32:32;;;;;;;3.22;1.50;;;10.50;78.60;;;;;;5015372;28;20044;-81
2022/02/10 20:34:58;;;;;;;2.85;1.60;;;10.50;78.50;;;;;;5005973;28;20044;-81
2022/02/10 20:37:25;;;;;;;3.67;1.90;;;10.50;78.50;;;;;;5044823;28;20037;-80
2022/02/10 20:39:51;;;;;;;2.33;1.55;;;10.40;78.50;;;;;;5003923;28;20538;-81
2022/02/10 20:42:19;;;;;;;2.80;1.75;;;10.50;78.50;;;;;;5017982;28;20032;-80
2022/02/10 20:44:49;;;;;;;3.58;1.55;;;10.40;78.50;;;;;;5029877;28;20033;-79
2022/02/10 20:47:18;;;;;;;2.83;1.77;;;10.40;78.50;;;;;;5028212;28;20014;-85
2022/02/10 20:49:45;;;;;;;3.65;1.60;;;10.40;78.40;;;;;;5013902;28;20026;-80
2022/02/10 20:52:11;;;;;;;3.53;1.90;;;10.40;78.50;;;;;;5024783;28;20033;-80
2022/02/10 20:54:38;;;;;;;2.67;1.77;;;10.40;78.40;;;;;;5047877;28;20025;-80
2022/02/10 20:57:04;;;;;;;2.90;1.88;;;10.40;78.50;;;;;;5014045;28;20501;-80
2022/02/10 20:59:33;;;;;;;3.38;1.88;;;10.30;78.40;;;;;;4998924;28;20029;-84
2022/02/10 21:02:07;;;;;;;4.15;2.08;;;10.30;78.40;;;;;;5013791;28;20029;-80
2022/02/10 21:04:37;;;;;;;2.85;1.70;;;10.30;78.40;;;;;;5010942;28;20150;-84
2022/02/10 21:07:11;;;;;;;2.20;1.60;;;10.30;78.40;;;;;;4996942;28;20037;-86
2022/02/10 21:09:49;;;;;;;3.17;1.67;;;10.30;78.40;;;;;;5005576;28;20028;-80
2022/02/10 21:12:15;;;;;;;2.55;1.73;;;10.30;79.10;;;;;;4985133;28;20502;-83
2022/02/10 21:14:42;;;;;;;2.25;1.60;;;10.20;78.40;;;;;;5031178;28;20030;-83
2022/02/10 21:17:11;;;;;;;3.10;1.70;;;10.20;78.40;;;;;;5014801;28;20037;-82
2022/02/10 21:19:37;;;;;;;2.08;1.65;;;10.20;78.40;;;;;;5014639;28;20032;-83
2022/02/10 21:22:10;;;;;;;2.80;1.80;;;10.20;78.40;;;;;;5007727;28;20545;-82
2022/02/10 21:24:42;;;;;;;3.30;1.65;;;10.20;78.40;;;;;;5013770;28;20036;-82
2022/02/10 21:29:53;;;;;;;2.90;1.90;;;10.10;78.40;;;;;;5000005;28;20124;-81
2022/02/10 21:32:19;;;;;;;2.03;1.80;;;10.10;78.40;;;;;;5000002;28;20081;-85
2022/02/10 21:35:05;;;;;;;3.13;1.75;;;10.10;78.40;;;;;;5028863;28;20056;-82
2022/02/10 21:37:31;;;;;;;2.83;1.67;;;10.10;78.40;;;;;;5014366;28;20049;-83
2022/02/10 21:40:14;;;;;;;2.25;1.63;;;10.10;78.40;;;;;;5026098;28;20029;-83
2022/02/10 22:19:22;;;;;;;3.05;1.80;;;9.80;78.50;;;;;;5045771;28;20083;-83
2022/02/10 22:21:51;;;;;;;3.30;1.70;;;9.80;78.60;;;;;;5000381;28;20036;-83
2022/02/10 22:24:19;;;;;;;2.53;1.70;;;9.80;78.60;;;;;;4982593;28;20067;-83
2022/02/10 22:26:47;;;;;;;2.55;1.85;;;9.80;78.60;;;;;;4994994;28;20123;-84
2022/02/10 22:32:01;;;;;;;2.50;1.70;;;9.70;78.50;;;;;;5004154;28;20505;-83
2022/02/10 22:34:35;;;;;;;1.77;1.52;;;9.70;78.50;;;;;;5016405;28;20041;-83
2022/02/10 22:37:04;;;;;;;1.73;1.63;;;9.70;78.50;;;;;;4972237;28;20041;-83
2022/02/10 22:39:35;;;;;;;2.33;1.63;;;9.70;78.50;;;;;;4993745;28;20474;-84
2022/02/10 22:42:02;;;;;;;4.03;2.15;;;9.70;78.50;;;;;;5027265;28;20026;-83
2022/02/10 22:44:28;;;;;;;2.33;1.63;;;9.70;78.50;;;;;;4992588;28;20028;-85
2022/02/10 22:46:54;;;;;;;2.25;1.90;;;9.60;78.50;;;;;;4999399;28;20030;-84
2022/02/10 22:49:19;;;;;;;2.45;1.60;;;9.60;78.50;;;;;;5013830;28;20036;-84
2022/02/10 22:51:45;;;;;;;2.20;1.73;;;9.60;78.50;;;;;;5013391;28;20034;-81
2022/02/10 22:54:15;;;;;;;2.65;1.70;;;9.60;78.50;;;;;;5012685;28;20042;-82
2022/02/10 22:56:44;;;;;;;2.33;1.63;;;9.60;78.50;;;;;;5002658;28;20767;-83
2022/02/10 22:59:10;;;;;;;2.88;1.67;;;9.60;78.50;;;;;;5029305;28;20471;-82
2022/02/10 23:01:37;;;;;;;1.88;1.67;;;9.50;78.50;;;;;;5019576;28;20089;-81
2022/02/10 23:04:04;;;;;;;2.60;1.70;;;9.50;78.50;;;;;;5016769;28;20543;-82
2022/02/10 23:06:29;;;;;;;2.33;1.58;;;9.50;78.50;;;;;;5007063;28;20562;-83
2022/02/10 23:08:55;;;;;;;2.58;1.60;;;9.50;78.50;;;;;;5000909;28;20112;-83
2022/02/10 23:11:29;;;;;;;2.95;2.28;;;9.50;78.50;;;;;;5032606;28;20053;-87
2022/02/10 23:13:58;;;;;;;1.98;1.50;;;9.40;78.40;;;;;;4997399;28;20033;-83
2022/02/10 23:16:25;;;;;;;2.58;1.55;;;9.40;78.50;;;;;;5013704;28;20034;-83
2022/02/10 23:18:52;;;;;;;2.58;1.65;;;9.40;78.50;;;;;;5023885;28;20029;-83
2022/02/10 23:21:18;;;;;;;3.72;1.73;;;9.40;78.50;;;;;;5014019;28;20028;-83
2022/02/10 23:23:47;;;;;;;2.20;1.58;;;9.40;78.50;;;;;;5013586;28;20030;-83
2022/02/10 23:26:16;;;;;;;3.75;1.73;;;9.40;78.50;;;;;;5025907;28;20135;-83
2022/02/10 23:28:45;;;;;;;2.50;1.75;;;9.30;78.50;;;;;;5017280;28;20080;-84
2022/02/10 23:31:13;;;;;;;1.48;1.38;;;9.30;78.50;;;;;;5013607;28;20029;-84
2022/02/10 23:33:42;;;;;;;2.05;1.50;;;9.30;78.40;;;;;;4999810;28;20463;-85
2022/02/10 23:38:48;;;;;;;2.00;1.50;;;9.30;78.40;;;;;;5007747;28;20076;-83
2022/02/10 23:44:16;;;;;;;2.88;1.50;;;9.20;78.30;;;;;;4990495;28;20045;-83
2022/02/10 23:46:43;;;;;;;2.65;1.70;;;9.20;78.40;;;;;;4999898;28;20040;-86
2022/02/10 23:49:13;;;;;;;1.50;1.40;;;9.20;78.30;;;;;;5016327;28;20172;-84
2022/02/10 23:51:48;;;;;;;2.05;1.60;;;9.20;78.40;;;;;;5014661;28;20120;-83
2022/02/10 23:54:13;;;;;;;;;;;9.20;78.40;;;;;;4982019;28;20030;-84
2022/02/10 23:56:45;;;;;;;1.75;1.38;;;9.10;78.30;;;;;;4986139;28;20009;-83
